Time;durP1;ratioP1;P1;durP2;ratioP2;P2;SDS_P1;SDS_P2;PMS_P1;PMS_P2;Temp;Humidity;BMP_temperature;BMP_pressure;BME280_temperature;BME280_humidity;BME280_pressure;Samples;Min_cycle;Max_cycle;Signal;HPM_P1;HPM_P2
2023/04/13 00:01:40;;;;;;;1.50;0.97;;;5.50;99.90;;;;;;5003831;28;20200;-55
2023/04/13 00:04:05;;;;;;;1.50;1.20;;;5.50;99.90;;;;;;5000220;28;20550;-55
2023/04/13 00:06:31;;;;;;;1.60;1.40;;;5.50;99.90;;;;;;5005877;28;20204;-58
2023/04/13 00:08:57;;;;;;;1.20;1.10;;;5.50;99.90;;;;;;5003554;28;22097;-57
2023/04/13 00:11:23;;;;;;;1.30;1.00;;;5.50;99.90;;;;;;5000956;28;20188;-57
2023/04/13 00:13:48;;;;;;;0.90;0.90;;;5.50;99.90;;;;;;5000958;28;20441;-57
2023/04/13 00:16:15;;;;;;;0.83;0.83;;;5.40;99.90;;;;;;5005026;28;20689;-56
2023/04/13 00:18:41;;;;;;;1.20;1.10;;;5.40;99.90;;;;;;5004212;28;20197;-57
2023/04/13 00:21:07;;;;;;;2.30;1.13;;;5.40;99.90;;;;;;5001260;28;20497;-56
2023/04/13 00:23:34;;;;;;;1.20;1.10;;;5.30;99.90;;;;;;5002572;28;20180;-57
2023/04/13 00:26:00;;;;;;;1.17;0.90;;;5.30;99.90;;;;;;5005190;28;20454;-58
2023/04/13 00:28:27;;;;;;;1.80;1.30;;;5.30;99.90;;;;;;5007059;28;20447;-56
2023/04/13 00:30:53;;;;;;;3.03;1.17;;;5.20;99.90;;;;;;5002123;28;20219;-57
2023/04/13 00:33:19;;;;;;;1.90;1.40;;;5.20;99.90;;;;;;5002784;28;20435;-58
2023/04/13 00:35:44;;;;;;;1.27;1.00;;;5.30;99.90;;;;;;5004764;28;20798;-56
2023/04/13 00:38:10;;;;;;;0.90;0.90;;;5.30;99.90;;;;;;5005617;28;20212;-57
2023/04/13 00:40:36;;;;;;;2.33;1.00;;;5.30;99.90;;;;;;5003359;28;20184;-56
2023/04/13 00:43:04;;;;;;;1.57;1.10;;;5.20;99.90;;;;;;5002012;28;20183;-56
2023/04/13 00:45:32;;;;;;;0.90;0.90;;;5.30;99.90;;;;;;5007321;28;20466;-58
2023/04/13 00:47:58;;;;;;;1.20;1.10;;;5.30;99.90;;;;;;5001450;28;21322;-57
2023/04/13 00:50:24;;;;;;;1.17;1.07;;;5.30;99.90;;;;;;4999879;28;20928;-57
2023/04/13 00:52:50;;;;;;;2.13;1.20;;;5.20;99.90;;;;;;5002458;28;20446;-58
2023/04/13 00:55:20;;;;;;;1.13;1.03;;;5.20;99.90;;;;;;4999475;28;21068;-59
2023/04/13 00:57:48;;;;;;;1.10;1.00;;;5.20;99.90;;;;;;5004830;28;20467;-56
2023/04/13 01:00:18;;;;;;;1.17;1.07;;;5.20;99.90;;;;;;5001823;28;20737;-57
2023/04/13 01:02:44;;;;;;;1.10;1.00;;;5.20;99.90;;;;;;4998960;28;20440;-56
2023/04/13 01:05:11;;;;;;;0.93;0.87;;;5.20;99.90;;;;;;4998066;28;20543;-59
2023/04/13 01:07:58;;;;;;;0.80;0.80;;;5.20;99.90;;;;;;4999410;28;20534;-57
2023/04/13 01:10:41;;;;;;;1.20;1.10;;;5.20;99.90;;;;;;5003854;28;20884;-56
2023/04/13 01:13:39;;;;;;;1.73;1.00;;;5.20;99.90;;;;;;4999503;28;20485;-56
2023/04/13 01:16:16;;;;;;;0.90;0.90;;;5.20;99.90;;;;;;4998837;28;20454;-56
2023/04/13 01:18:44;;;;;;;2.27;1.10;;;5.20;99.90;;;;;;5004672;28;20463;-56
2023/04/13 01:21:13;;;;;;;1.20;1.10;;;5.20;99.90;;;;;;5004845;28;20539;-57
2023/04/13 01:23:45;;;;;;;4.97;0.90;;;5.20;99.90;;;;;;5005692;28;20428;-56
2023/04/13 01:26:10;;;;;;;1.20;1.07;;;5.20;99.90;;;;;;5003679;28;20431;-55
2023/04/13 01:28:38;;;;;;;1.23;1.13;;;5.20;99.90;;;;;;5005233;28;20431;-57
2023/04/13 01:31:10;;;;;;;1.43;1.33;;;5.30;99.90;;;;;;5000114;28;20211;-58
2023/04/13 01:33:40;;;;;;;1.00;1.00;;;5.30;99.90;;;;;;5002430;28;20443;-57
2023/04/13 01:36:07;;;;;;;2.03;1.13;;;5.30;99.90;;;;;;5003936;28;20443;-56
2023/04/13 01:38:34;;;;;;;3.03;1.20;;;5.30;99.90;;;;;;5003978;28;20459;-58
2023/04/13 01:41:00;;;;;;;6.53;1.30;;;5.20;99.90;;;;;;5003418;28;20443;-56
2023/04/13 01:43:26;;;;;;;1.10;1.00;;;5.20;99.90;;;;;;5006200;28;20431;-56
2023/04/13 01:46:14;;;;;;;1.40;1.30;;;5.20;99.90;;;;;;5002681;28;20213;-57
2023/04/13 01:48:47;;;;;;;2.33;1.17;;;5.20;99.90;;;;;;5002716;28;20440;-57
2023/04/13 01:51:23;;;;;;;1.17;1.17;;;5.20;99.90;;;;;;5003790;28;20427;-57
2023/04/13 01:54:06;;;;;;;2.20;1.50;;;5.20;99.90;;;;;;5003234;28;21341;-58
2023/04/13 01:56:32;;;;;;;1.50;1.40;;;5.20;99.90;;;;;;5002264;28;20509;-56
2023/04/13 01:58:59;;;;;;;1.23;1.13;;;5.20;99.90;;;;;;4996500;28;21148;-55
2023/04/13 02:01:25;;;;;;;1.43;1.20;;;5.20;99.90;;;;;;5001053;28;20455;-54
2023/04/13 02:03:52;;;;;;;1.10;1.10;;;5.20;99.90;;;;;;4999936;28;20444;-55
2023/04/13 02:06:18;;;;;;;1.30;1.20;;;5.20;99.90;;;;;;5000009;28;20515;-56
2023/04/13 02:08:44;;;;;;;1.10;1.03;;;5.20;99.90;;;;;;5001522;28;20534;-55
2023/04/13 02:11:11;;;;;;;1.50;1.40;;;5.20;99.90;;;;;;5000692;28;20595;-54
2023/04/13 02:13:37;;;;;;;3.27;1.40;;;5.20;99.90;;;;;;5003350;28;20499;-53
2023/04/13 02:16:05;;;;;;;1.30;1.20;;;5.30;99.90;;;;;;5002498;28;20446;-53
2023/04/13 02:18:32;;;;;;;1.57;1.20;;;5.20;99.90;;;;;;5005170;28;20470;-54
2023/04/13 02:21:08;;;;;;;1.10;1.10;;;5.30;99.90;;;;;;5005664;28;20440;-55
2023/04/13 02:23:35;;;;;;;1.20;1.20;;;5.30;99.90;;;;;;5005809;28;20860;-56
2023/04/13 02:26:01;;;;;;;1.90;1.30;;;5.30;99.90;;;;;;5002910;28;20428;-51
2023/04/13 02:28:28;;;;;;;1.40;1.30;;;5.20;99.90;;;;;;5004733;28;20463;-53
2023/04/13 02:30:54;;;;;;;1.30;1.20;;;5.30;99.90;;;;;;5002707;28;20721;-56
2023/04/13 02:33:20;;;;;;;1.40;1.30;;;5.30;99.90;;;;;;5004594;28;20968;-54
2023/04/13 02:35:47;;;;;;;1.83;1.53;;;5.30;99.90;;;;;;5001905;28;20633;-55
2023/04/13 02:38:14;;;;;;;3.53;1.40;;;5.30;99.90;;;;;;5002197;28;20915;-56
2023/04/13 02:40:41;;;;;;;4.70;1.20;;;5.30;99.90;;;;;;5000236;28;20962;-57
2023/04/13 02:43:11;;;;;;;1.60;1.50;;;5.30;99.90;;;;;;5006221;28;20432;-55
2023/04/13 02:45:38;;;;;;;5.97;1.83;;;5.30;99.90;;;;;;5007229;28;20437;-56
2023/04/13 02:48:04;;;;;;;1.53;1.43;;;5.30;99.90;;;;;;5007539;28;20486;-56
2023/04/13 02:50:29;;;;;;;2.00;1.10;;;5.30;99.90;;;;;;5005022;28;20435;-54
2023/04/13 02:52:55;;;;;;;1.60;1.50;;;5.30;99.90;;;;;;5005864;28;20443;-54
2023/04/13 02:55:21;;;;;;;6.20;1.57;;;5.30;99.90;;;;;;5000821;28;20183;-55
2023/04/13 02:57:46;;;;;;;3.53;1.60;;;5.30;99.90;;;;;;5000805;28;20907;-55
2023/04/13 03:00:12;;;;;;;1.77;1.20;;;5.30;99.90;;;;;;5005579;28;20268;-55
2023/04/13 03:02:38;;;;;;;3.77;1.30;;;5.40;99.90;;;;;;5004624;28;20204;-54
2023/04/13 03:05:05;;;;;;;2.47;1.60;;;5.30;99.90;;;;;;5003550;28;20431;-56
2023/04/13 03:07:32;;;;;;;7.57;1.80;;;5.30;99.90;;;;;;4999110;28;20200;-56
2023/04/13 03:10:01;;;;;;;3.30;1.90;;;5.30;99.90;;;;;;5000651;28;20427;-56
2023/04/13 03:12:26;;;;;;;2.60;1.43;;;5.30;99.90;;;;;;4997175;28;20442;-57
2023/04/13 03:14:52;;;;;;;3.43;1.40;;;5.30;99.90;;;;;;5002396;28;20518;-55
2023/04/13 03:17:18;;;;;;;4.87;1.80;;;5.30;99.90;;;;;;5003018;28;20211;-56
2023/04/13 03:19:46;;;;;;;1.57;1.47;;;5.30;99.90;;;;;;5004482;28;20459;-56
2023/04/13 03:22:12;;;;;;;5.17;1.70;;;5.30;99.90;;;;;;5003908;28;20203;-54
2023/04/13 03:24:38;;;;;;;1.30;1.20;;;5.30;99.90;;;;;;5006548;28;21007;-57
2023/04/13 03:27:04;;;;;;;14.13;1.50;;;5.30;99.90;;;;;;5004948;28;20197;-55
2023/04/13 03:29:30;;;;;;;5.80;1.53;;;5.30;99.90;;;;;;5000469;28;20466;-55
2023/04/13 03:31:56;;;;;;;3.03;1.37;;;5.40;99.90;;;;;;5002068;28;20226;-55
2023/04/13 03:34:22;;;;;;;7.40;1.73;;;5.30;99.90;;;;;;5002920;28;20439;-55
2023/04/13 03:36:48;;;;;;;4.47;1.57;;;5.30;99.90;;;;;;5005815;28;20204;-57
2023/04/13 03:39:14;;;;;;;7.73;2.10;;;5.30;99.90;;;;;;5000922;28;20466;-55
2023/04/13 03:41:39;;;;;;;5.23;1.67;;;5.30;99.90;;;;;;5004055;28;21135;-54
2023/04/13 03:44:06;;;;;;;4.50;1.60;;;5.30;99.90;;;;;;5003113;28;20176;-55
2023/04/13 03:46:36;;;;;;;1.73;1.37;;;5.30;99.90;;;;;;5003766;28;20673;-52
2023/04/13 03:49:03;;;;;;;3.80;1.80;;;5.30;99.90;;;;;;5002228;28;20501;-54
2023/04/13 03:51:28;;;;;;;2.50;1.50;;;5.30;99.90;;;;;;5003659;28;20513;-54
2023/04/13 03:53:54;;;;;;;4.00;1.73;;;5.30;99.90;;;;;;5002332;28;21007;-55
2023/04/13 03:56:20;;;;;;;3.20;1.73;;;5.20;99.90;;;;;;5002428;28;20650;-57
2023/04/13 03:58:45;;;;;;;3.70;2.10;;;5.20;99.90;;;;;;5003508;28;20220;-55
2023/04/13 04:01:12;;;;;;;9.50;1.83;;;5.20;99.90;;;;;;5000608;28;20177;-56
2023/04/13 04:03:38;;;;;;;3.17;1.60;;;5.10;99.90;;;;;;5002594;28;20561;-55
2023/04/13 04:06:04;;;;;;;3.70;1.60;;;5.10;99.90;;;;;;4999889;28;20435;-58
2023/04/13 04:08:29;;;;;;;2.03;1.60;;;5.10;99.90;;;;;;5002634;28;20185;-57
2023/04/13 04:10:56;;;;;;;2.50;1.60;;;5.10;99.90;;;;;;5001487;28;20487;-54
2023/04/13 04:13:22;;;;;;;1.63;1.53;;;5.10;99.90;;;;;;5001261;28;20475;-55
2023/04/13 04:15:47;;;;;;;5.33;1.93;;;5.00;99.90;;;;;;4987520;28;20192;-57
2023/04/13 04:18:13;;;;;;;3.17;1.90;;;5.00;99.90;;;;;;4992119;28;20204;-59
2023/04/13 04:20:39;;;;;;;4.60;2.03;;;5.10;99.90;;;;;;4991832;28;20276;-52
2023/04/13 04:23:04;;;;;;;2.63;1.50;;;5.10;99.90;;;;;;4995297;28;20338;-57
2023/04/13 04:25:32;;;;;;;4.77;1.63;;;5.10;99.90;;;;;;4993188;28;20238;-57
2023/04/13 04:28:01;;;;;;;4.10;1.50;;;5.00;99.90;;;;;;4995570;28;20399;-56
2023/04/13 04:32:55;;;;;;;4.33;1.70;;;5.00;99.90;;;;;;5037365;23;20524;-56
2023/04/13 04:35:25;;;;;;;4.33;1.43;;;5.00;99.90;;;;;;5016033;28;20748;-56
2023/04/13 04:37:54;;;;;;;9.30;1.77;;;4.90;99.90;;;;;;5000790;28;20435;-56
2023/04/13 04:40:20;;;;;;;4.90;1.67;;;5.00;99.90;;;;;;5006993;28;20476;-56
2023/04/13 04:42:45;;;;;;;4.27;1.60;;;5.00;99.90;;;;;;5010102;28;20806;-55
2023/04/13 04:45:13;;;;;;;2.77;1.40;;;5.00;99.90;;;;;;5015751;28;20253;-57
2023/04/13 04:47:43;;;;;;;3.87;1.70;;;4.90;99.90;;;;;;5014102;28;20884;-57
2023/04/13 04:50:11;;;;;;;3.03;1.83;;;5.00;99.90;;;;;;5014962;28;20441;-55
2023/04/13 04:52:38;;;;;;;5.27;2.00;;;4.90;99.90;;;;;;5014810;28;20468;-55
2023/04/13 04:55:05;;;;;;;5.80;1.90;;;4.90;99.90;;;;;;5023072;28;20423;-55
2023/04/13 04:57:32;;;;;;;4.70;1.93;;;4.90;99.90;;;;;;5016610;28;20928;-55
2023/04/13 04:59:58;;;;;;;4.80;2.10;;;4.90;99.90;;;;;;5019311;28;20953;-57
2023/04/13 05:02:24;;;;;;;4.20;2.00;;;4.90;99.90;;;;;;5017891;28;20996;-55
2023/04/13 05:04:51;;;;;;;2.93;1.70;;;4.90;99.90;;;;;;5019507;28;20475;-58
2023/04/13 05:07:17;;;;;;;7.80;2.07;;;4.90;99.90;;;;;;5006445;28;20205;-56
2023/04/13 05:09:44;;;;;;;8.10;1.80;;;4.90;99.90;;;;;;5014505;28;20444;-55
2023/04/13 05:12:10;;;;;;;3.60;2.00;;;4.90;99.90;;;;;;5020333;28;20451;-55
2023/04/13 05:14:36;;;;;;;3.60;2.23;;;4.90;99.90;;;;;;5018283;28;20502;-56
2023/04/13 05:17:01;;;;;;;3.30;2.07;;;4.90;99.90;;;;;;5019466;28;20506;-57
2023/04/13 05:19:27;;;;;;;5.20;1.70;;;4.90;99.90;;;;;;5019345;28;20200;-52
2023/04/13 05:21:53;;;;;;;6.83;1.70;;;4.90;99.90;;;;;;5014416;28;20212;-54
2023/04/13 05:24:18;;;;;;;4.47;2.00;;;4.90;99.90;;;;;;5011721;28;20164;-51
2023/04/13 05:26:44;;;;;;;7.03;1.97;;;4.80;99.90;;;;;;5012740;28;20180;-55
2023/04/13 05:29:09;;;;;;;7.37;1.80;;;4.80;99.90;;;;;;5019713;28;20176;-56
2023/04/13 05:31:35;;;;;;;9.37;2.37;;;4.80;99.90;;;;;;5016569;28;20293;-58
2023/04/13 05:34:01;;;;;;;3.03;1.80;;;4.80;99.90;;;;;;5010255;28;20205;-57
2023/04/13 05:36:28;;;;;;;7.33;1.93;;;4.80;99.90;;;;;;5013140;28;20176;-56
2023/04/13 05:38:55;;;;;;;2.83;1.73;;;4.70;99.90;;;;;;5009919;28;20195;-55
2023/04/13 05:41:21;;;;;;;3.20;1.90;;;4.70;99.90;;;;;;5013673;28;20552;-56
2023/04/13 05:43:48;;;;;;;5.37;1.70;;;4.70;99.90;;;;;;5010810;28;20529;-55
2023/04/13 05:46:14;;;;;;;3.20;1.60;;;4.70;99.90;;;;;;5016620;28;20187;-55
2023/04/13 05:48:42;;;;;;;3.93;1.80;;;4.70;99.90;;;;;;5020772;28;20449;-55
2023/04/13 05:51:09;;;;;;;12.90;2.57;;;4.70;99.90;;;;;;5017647;28;20908;-55
2023/04/13 05:53:35;;;;;;;11.27;3.17;;;4.60;99.90;;;;;;5019743;28;20451;-56
2023/04/13 05:56:01;;;;;;;8.23;2.40;;;4.60;99.90;;;;;;5020800;28;20454;-56
2023/04/13 05:58:26;;;;;;;4.37;1.73;;;4.60;99.90;;;;;;5026521;28;20465;-55
2023/04/13 06:00:52;;;;;;;10.00;2.20;;;4.60;99.90;;;;;;5019538;28;20203;-55
2023/04/13 06:03:19;;;;;;;4.07;2.30;;;4.70;99.90;;;;;;5026795;28;20252;-57
2023/04/13 06:05:45;;;;;;;3.23;2.50;;;4.70;99.90;;;;;;5022504;28;20965;-56
2023/04/13 06:08:12;;;;;;;8.33;2.47;;;4.80;99.90;;;;;;5024894;28;20418;-56
2023/04/13 06:10:38;;;;;;;11.20;3.80;;;4.80;99.90;;;;;;5023610;28;20751;-55
2023/04/13 06:13:04;;;;;;;10.43;3.00;;;4.80;99.90;;;;;;5027210;28;20426;-55
2023/04/13 06:15:30;;;;;;;5.73;2.03;;;4.90;99.90;;;;;;5022190;28;20425;-55
2023/04/13 06:17:56;;;;;;;7.70;2.53;;;4.80;99.90;;;;;;5022242;28;20548;-56
2023/04/13 06:20:22;;;;;;;6.97;2.47;;;4.80;99.90;;;;;;5017801;28;20527;-56
2023/04/13 06:22:48;;;;;;;4.43;2.40;;;4.80;99.90;;;;;;5018947;28;20642;-56
2023/04/13 06:25:15;;;;;;;6.87;2.23;;;4.80;99.90;;;;;;5017504;28;20522;-56
2023/04/13 06:27:42;;;;;;;6.43;2.13;;;4.80;99.90;;;;;;5016275;28;20531;-55
2023/04/13 06:30:09;;;;;;;14.33;2.57;;;4.70;99.90;;;;;;5031121;28;20461;-56
2023/04/13 06:32:35;;;;;;;10.30;1.90;;;4.70;99.90;;;;;;5024380;28;20533;-57
2023/04/13 06:35:02;;;;;;;6.03;1.83;;;4.70;99.90;;;;;;5022744;28;20504;-56
2023/04/13 06:37:27;;;;;;;6.77;2.50;;;4.70;99.90;;;;;;5019765;28;20431;-56
2023/04/13 06:39:53;;;;;;;5.73;2.60;;;4.70;99.90;;;;;;5019315;28;20452;-56
2023/04/13 06:42:20;;;;;;;6.87;2.93;;;4.80;99.90;;;;;;5019855;28;20637;-58
2023/04/13 06:44:45;;;;;;;8.03;3.60;;;4.80;99.90;;;;;;5022934;28;20755;-56
2023/04/13 06:47:11;;;;;;;5.73;2.60;;;4.80;99.90;;;;;;5025966;28;20537;-57
2023/04/13 06:49:37;;;;;;;8.17;3.30;;;4.80;99.90;;;;;;5030371;28;20179;-56
2023/04/13 06:52:03;;;;;;;7.20;2.70;;;4.90;99.90;;;;;;5028006;28;20200;-56
2023/04/13 06:54:29;;;;;;;5.80;1.90;;;5.00;99.90;;;;;;5023960;28;20443;-57
2023/04/13 06:56:55;;;;;;;6.90;2.10;;;5.00;99.90;;;;;;5024452;28;20296;-57
2023/04/13 06:59:21;;;;;;;9.70;3.83;;;5.10;99.90;;;;;;5021607;28;20466;-57
2023/04/13 07:01:47;;;;;;;6.37;2.00;;;5.10;99.90;;;;;;5018835;28;20452;-57
2023/04/13 07:04:12;;;;;;;7.40;2.63;;;5.20;99.90;;;;;;5018626;28;20530;-58
2023/04/13 07:06:38;;;;;;;9.07;2.40;;;5.20;99.30;;;;;;5017102;28;20179;-57
2023/04/13 07:09:04;;;;;;;9.80;2.40;;;5.30;99.20;;;;;;5023700;28;20214;-57
2023/04/13 07:11:30;;;;;;;3.33;2.10;;;5.50;97.30;;;;;;5012739;28;20211;-57
2023/04/13 07:13:55;;;;;;;3.77;2.30;;;5.60;98.10;;;;;;5019918;28;20190;-56
2023/04/13 07:16:21;;;;;;;9.73;2.33;;;5.80;97.50;;;;;;5019810;28;20427;-55
2023/04/13 07:18:47;;;;;;;12.63;2.50;;;5.90;94.30;;;;;;5017240;28;20203;-57
2023/04/13 07:21:12;;;;;;;9.80;1.73;;;6.10;85.90;;;;;;5026311;28;20322;-57
2023/04/13 07:23:38;;;;;;;7.20;1.80;;;6.20;86.40;;;;;;5022843;28;20226;-57
2023/04/13 07:26:05;;;;;;;9.60;2.00;;;6.20;84.60;;;;;;5022054;28;20176;-58
2023/04/13 07:28:30;;;;;;;3.63;1.90;;;6.20;81.00;;;;;;5017076;28;20177;-58
2023/04/13 07:30:56;;;;;;;5.53;1.83;;;6.20;76.50;;;;;;5017691;28;20462;-56
2023/04/13 07:33:21;;;;;;;8.77;2.53;;;6.20;77.60;;;;;;5016275;28;20607;-53
2023/04/13 07:35:49;;;;;;;8.80;2.27;;;6.30;77.00;;;;;;5015719;28;20210;-57
2023/04/13 07:38:15;;;;;;;16.50;2.50;;;6.30;75.50;;;;;;5017501;28;20245;-57
2023/04/13 07:40:41;;;;;;;5.07;1.63;;;6.30;75.00;;;;;;5021414;28;20484;-57
2023/04/13 07:43:06;;;;;;;5.57;1.70;;;6.30;73.40;;;;;;5018717;28;20782;-58
2023/04/13 07:45:32;;;;;;;6.93;2.03;;;6.30;73.50;;;;;;5017677;28;20830;-58
2023/04/13 07:47:58;;;;;;;15.80;2.57;;;6.40;74.60;;;;;;5015732;28;20245;-57
2023/04/13 07:50:23;;;;;;;9.47;2.33;;;6.40;75.70;;;;;;5024262;28;20215;-57
2023/04/13 07:52:49;;;;;;;7.60;1.70;;;6.50;74.20;;;;;;5020586;28;20200;-57
2023/04/13 07:55:15;;;;;;;11.43;1.60;;;6.50;72.10;;;;;;5011467;28;20175;-58
2023/04/13 07:57:41;;;;;;;7.00;1.77;;;6.50;71.30;;;;;;5017986;28;20917;-58
2023/04/13 08:00:07;;;;;;;4.60;2.67;;;6.60;70.70;;;;;;5011277;28;20465;-57
2023/04/13 08:02:33;;;;;;;9.40;2.00;;;6.60;70.80;;;;;;5015795;28;20206;-57
2023/04/13 08:04:58;;;;;;;10.40;2.00;;;6.60;69.60;;;;;;5017726;28;20442;-57
2023/04/13 08:07:25;;;;;;;13.87;2.70;;;6.60;70.20;;;;;;5022964;28;20172;-57
2023/04/13 08:09:51;;;;;;;7.43;2.03;;;6.60;68.80;;;;;;5016513;28;20629;-57
2023/04/13 08:12:18;;;;;;;6.13;2.00;;;6.60;67.00;;;;;;5018505;28;21022;-56
2023/04/13 08:14:43;;;;;;;16.93;2.20;;;6.50;67.60;;;;;;5019506;28;20434;-58
2023/04/13 08:17:10;;;;;;;9.83;2.40;;;6.40;67.50;;;;;;5015421;28;20443;-53
2023/04/13 08:19:35;;;;;;;15.37;2.37;;;6.40;67.30;;;;;;5018990;28;20204;-56
2023/04/13 08:22:01;;;;;;;11.07;1.87;;;6.40;67.90;;;;;;5016386;28;20473;-59
2023/04/13 08:24:28;;;;;;;3.37;2.00;;;6.40;65.90;;;;;;5021315;28;20179;-56
2023/04/13 08:26:56;;;;;;;8.33;2.10;;;6.30;66.30;;;;;;5022965;28;20282;-57
2023/04/13 08:29:22;;;;;;;8.47;2.13;;;6.30;66.00;;;;;;5021820;28;20790;-58
2023/04/13 08:31:48;;;;;;;5.20;1.90;;;6.30;66.70;;;;;;5013400;28;20499;-57
2023/04/13 08:34:15;;;;;;;3.83;2.17;;;6.40;67.20;;;;;;5015291;28;21011;-56
2023/04/13 08:36:41;;;;;;;6.40;1.57;;;6.40;65.80;;;;;;5020895;28;20203;-56
2023/04/13 08:39:09;;;;;;;9.13;2.20;;;6.50;66.20;;;;;;5015582;28;20458;-55
2023/04/13 08:41:36;;;;;;;12.07;2.33;;;6.60;66.50;;;;;;5011110;28;20200;-57
2023/04/13 08:44:05;;;;;;;8.53;2.70;;;6.60;65.40;;;;;;5034054;28;20449;-55
2023/04/13 08:46:32;;;;;;;7.90;1.93;;;6.60;64.10;;;;;;5024864;28;20438;-57
2023/04/13 08:49:00;;;;;;;5.27;1.80;;;6.60;64.70;;;;;;5014790;28;20450;-57
2023/04/13 08:51:28;;;;;;;5.53;2.30;;;6.60;64.90;;;;;;5013865;28;20474;-58
2023/04/13 08:53:54;;;;;;;8.30;2.00;;;6.60;65.30;;;;;;5012206;28;20434;-55
2023/04/13 08:56:21;;;;;;;8.63;2.03;;;6.60;65.30;;;;;;5012063;28;20542;-56
2023/04/13 08:58:48;;;;;;;9.27;2.63;;;6.60;65.80;;;;;;5008958;28;21026;-55
2023/04/13 09:01:15;;;;;;;13.83;2.60;;;6.60;66.80;;;;;;5017578;28;20450;-58
2023/04/13 09:04:16;;;;;;;13.03;2.03;;;6.60;66.90;;;;;;5019183;28;20454;-54
2023/04/13 09:06:42;;;;;;;9.00;2.30;;;6.60;67.10;;;;;;4985001;28;20442;-56
2023/04/13 09:09:09;;;;;;;6.20;2.30;;;6.60;67.50;;;;;;5020435;28;20527;-56
2023/04/13 09:11:36;;;;;;;4.00;2.03;;;6.60;66.60;;;;;;5014034;28;20200;-54
2023/04/13 09:14:02;;;;;;;8.40;2.17;;;6.70;66.50;;;;;;5020550;28;20441;-56
2023/04/13 09:16:27;;;;;;;13.67;2.93;;;6.70;66.60;;;;;;5017429;28;20919;-56
2023/04/13 09:18:55;;;;;;;6.50;2.40;;;6.70;66.10;;;;;;5016098;28;20221;-54
2023/04/13 09:21:22;;;;;;;9.90;2.40;;;6.70;66.00;;;;;;5018834;28;20289;-55
2023/04/13 09:23:58;;;;;;;13.23;3.00;;;6.60;65.60;;;;;;5017923;28;20523;-56
2023/04/13 09:26:25;;;;;;;9.67;1.97;;;6.50;65.40;;;;;;5009590;28;20479;-57
2023/04/13 09:28:53;;;;;;;11.93;2.30;;;6.50;65.10;;;;;;5024324;28;20619;-57
2023/04/13 09:31:19;;;;;;;8.07;1.87;;;6.40;64.60;;;;;;5012828;28;22415;-57
2023/04/13 09:33:45;;;;;;;7.00;2.40;;;6.30;64.40;;;;;;5026750;28;20522;-56
2023/04/13 09:36:12;;;;;;;7.70;2.50;;;6.20;64.60;;;;;;5018531;28;20175;-56
2023/04/13 09:38:38;;;;;;;17.50;2.30;;;6.20;65.20;;;;;;5023784;28;20913;-59
2023/04/13 09:41:03;;;;;;;11.77;2.90;;;6.10;65.00;;;;;;5026919;28;20507;-56
2023/04/13 09:43:36;;;;;;;5.13;2.07;;;6.10;64.70;;;;;;5018401;28;20177;-57
2023/04/13 09:46:03;;;;;;;14.37;2.90;;;6.10;65.10;;;;;;5017808;28;20248;-58
2023/04/13 09:48:30;;;;;;;9.00;2.10;;;6.10;65.90;;;;;;5035623;28;20442;-56
2023/04/13 09:51:06;;;;;;;4.50;2.50;;;6.10;65.90;;;;;;5031804;28;20453;-55
2023/04/13 09:53:46;;;;;;;13.60;2.33;;;6.10;66.10;;;;;;5021063;28;20442;-57
2023/04/13 09:56:12;;;;;;;7.27;2.70;;;6.10;68.00;;;;;;5014749;28;20477;-58
2023/04/13 09:58:46;;;;;;;11.63;2.63;;;6.10;68.70;;;;;;5018838;28;20484;-59
2023/04/13 10:01:14;;;;;;;13.40;3.00;;;6.00;69.30;;;;;;5022060;28;20990;-57
2023/04/13 10:03:41;;;;;;;9.53;2.80;;;6.00;70.00;;;;;;5024475;28;20541;-55
2023/04/13 10:06:07;;;;;;;9.83;2.63;;;6.00;71.00;;;;;;5023025;28;20525;-56
2023/04/13 10:08:36;;;;;;;13.70;2.63;;;6.10;72.50;;;;;;5018729;28;20445;-55
2023/04/13 10:11:03;;;;;;;10.80;2.70;;;6.10;75.00;;;;;;5020249;28;20544;-55
2023/04/13 10:13:56;;;;;;;7.60;3.60;;;6.20;77.80;;;;;;5031108;28;22300;-57
2023/04/13 10:16:52;;;;;;;6.23;2.13;;;6.50;82.30;;;;;;5018728;28;20458;-56
2023/04/13 10:19:26;;;;;;;13.57;2.40;;;6.80;80.10;;;;;;5008283;28;20475;-54
2023/04/13 10:21:55;;;;;;;6.80;2.13;;;7.00;76.10;;;;;;5023983;28;20473;-56
2023/04/13 10:24:22;;;;;;;10.57;2.80;;;7.20;72.60;;;;;;5023811;28;20515;-55
2023/04/13 10:26:53;;;;;;;6.23;2.47;;;7.20;70.50;;;;;;5021472;28;20438;-56
2023/04/13 10:29:31;;;;;;;11.47;2.60;;;7.30;67.50;;;;;;5020624;28;20427;-57
2023/04/13 10:32:02;;;;;;;6.87;2.50;;;7.20;68.10;;;;;;5015662;28;20462;-57
2023/04/13 10:34:33;;;;;;;6.57;2.63;;;7.20;65.90;;;;;;5018421;28;20442;-54
2023/04/13 10:37:06;;;;;;;11.67;3.20;;;7.20;65.80;;;;;;5027307;28;20803;-56
2023/04/13 10:39:35;;;;;;;10.30;2.93;;;7.10;65.10;;;;;;5018471;28;21253;-56
2023/04/13 10:42:01;;;;;;;11.10;2.43;;;7.10;65.10;;;;;;5026970;28;20453;-57
2023/04/13 10:44:39;;;;;;;10.60;2.40;;;7.10;64.80;;;;;;5024870;28;20435;-56
2023/04/13 10:47:07;;;;;;;12.60;3.07;;;7.10;64.20;;;;;;5023281;28;20473;-59
2023/04/13 10:49:32;;;;;;;7.03;3.67;;;7.20;64.50;;;;;;5006255;23;20594;-58
2023/04/13 10:51:58;;;;;;;12.20;2.83;;;7.30;64.80;;;;;;5003657;28;20430;-52
2023/04/13 10:54:28;;;;;;;11.60;2.53;;;7.40;65.20;;;;;;5005320;28;20423;-54
2023/04/13 10:57:03;;;;;;;12.77;3.07;;;7.60;64.80;;;;;;5002240;28;20522;-55
2023/04/13 10:59:52;;;;;;;6.10;2.33;;;7.80;63.60;;;;;;4983553;28;20509;-57
2023/04/13 11:02:18;;;;;;;6.30;2.30;;;8.00;64.30;;;;;;4979689;28;20459;-57
2023/04/13 11:04:46;;;;;;;14.23;2.73;;;8.40;62.40;;;;;;4975911;28;20515;-56
2023/04/13 11:07:15;;;;;;;9.00;2.40;;;8.60;61.80;;;;;;4980218;28;20961;-54
2023/04/13 11:09:42;;;;;;;8.20;2.60;;;8.80;59.80;;;;;;4971585;28;20510;-57
2023/04/13 11:12:10;;;;;;;9.73;2.43;;;8.70;58.50;;;;;;4980169;28;21162;-55
2023/04/13 11:14:37;;;;;;;11.90;2.50;;;8.50;59.20;;;;;;4977845;28;21070;-52
2023/04/13 11:17:05;;;;;;;8.80;2.60;;;8.30;60.90;;;;;;4978109;28;20439;-54
2023/04/13 11:19:31;;;;;;;7.30;2.63;;;8.10;63.40;;;;;;4986759;28;21007;-54
2023/04/13 11:21:58;;;;;;;13.47;3.17;;;8.00;62.70;;;;;;4985626;28;20440;-56
2023/04/13 11:24:32;;;;;;;12.07;3.30;;;7.90;63.10;;;;;;4984445;28;20211;-53
2023/04/13 11:26:58;;;;;;;7.57;2.40;;;7.80;64.70;;;;;;4981404;28;20431;-56
2023/04/13 11:29:24;;;;;;;8.53;2.30;;;7.80;65.00;;;;;;4980023;28;20807;-57
2023/04/13 11:31:50;;;;;;;8.90;2.33;;;7.90;65.00;;;;;;4979654;28;20624;-54
2023/04/13 11:34:27;;;;;;;9.43;2.60;;;8.00;65.90;;;;;;4981011;28;20461;-55
2023/04/13 11:36:59;;;;;;;6.60;1.90;;;8.20;62.20;;;;;;4983163;28;20432;-55
2023/04/13 11:39:26;;;;;;;5.43;2.17;;;8.40;62.50;;;;;;4981197;28;20510;-54
2023/04/13 11:41:52;;;;;;;7.77;2.33;;;8.60;61.40;;;;;;4979146;28;20949;-54
2023/04/13 11:44:17;;;;;;;7.77;2.60;;;8.70;60.70;;;;;;4979355;28;20425;-55
2023/04/13 11:46:43;;;;;;;12.30;1.87;;;8.80;60.30;;;;;;4979645;28;20173;-57
2023/04/13 11:49:09;;;;;;;7.60;2.13;;;8.80;58.50;;;;;;4963080;28;20533;-56
2023/04/13 11:51:35;;;;;;;13.13;2.70;;;8.70;59.70;;;;;;4975307;28;20195;-55
2023/04/13 11:54:01;;;;;;;4.50;1.97;;;8.70;60.00;;;;;;4981009;28;20181;-56
2023/04/13 11:56:27;;;;;;;9.17;1.70;;;8.60;59.20;;;;;;4980112;28;20813;-56
2023/04/13 11:58:53;;;;;;;7.00;2.13;;;8.60;59.40;;;;;;4981119;28;20220;-56
2023/04/13 12:01:22;;;;;;;7.53;1.70;;;8.60;59.00;;;;;;4977906;28;21000;-55
2023/04/13 12:03:48;;;;;;;6.20;2.17;;;8.70;59.50;;;;;;4981205;28;20817;-57
2023/04/13 12:06:15;;;;;;;7.00;2.43;;;8.80;58.60;;;;;;4979457;28;20448;-58
2023/04/13 12:08:42;;;;;;;3.50;1.90;;;8.80;58.00;;;;;;4989175;28;20474;-55
2023/04/13 12:11:08;;;;;;;15.23;2.10;;;8.80;57.10;;;;;;4984918;28;20436;-54
2023/04/13 12:13:43;;;;;;;7.60;2.03;;;8.80;57.50;;;;;;4980411;28;20518;-54
2023/04/13 12:16:09;;;;;;;4.97;2.10;;;8.70;56.90;;;;;;4977990;28;20446;-57
2023/04/13 12:18:42;;;;;;;3.60;1.70;;;8.70;57.90;;;;;;4982364;28;20610;-56
2023/04/13 12:21:15;;;;;;;4.53;1.80;;;8.60;57.90;;;;;;4983974;28;20549;-54
2023/04/13 12:23:51;;;;;;;9.60;2.40;;;8.60;57.50;;;;;;4984041;28;20450;-58
2023/04/13 12:26:18;;;;;;;5.23;1.80;;;8.60;57.20;;;;;;4983844;28;20447;-52
2023/04/13 12:28:45;;;;;;;7.43;1.80;;;8.70;58.50;;;;;;4980799;28;20444;-54
2023/04/13 12:31:11;;;;;;;8.00;2.40;;;8.80;58.90;;;;;;4974907;28;20460;-56
2023/04/13 12:33:38;;;;;;;11.50;1.90;;;8.80;56.90;;;;;;4978321;28;20433;-54
2023/04/13 12:36:10;;;;;;;6.17;1.50;;;8.90;57.50;;;;;;4985353;28;20901;-55
2023/04/13 12:38:36;;;;;;;5.77;1.60;;;9.00;56.10;;;;;;4979789;28;20472;-57
2023/04/13 12:41:02;;;;;;;5.90;1.90;;;9.10;55.90;;;;;;4984823;28;20861;-54
2023/04/13 12:43:27;;;;;;;7.97;1.90;;;9.30;55.60;;;;;;4977770;28;20436;-55
2023/04/13 12:45:54;;;;;;;6.83;1.90;;;9.50;55.50;;;;;;4980376;28;20428;-58
2023/04/13 12:48:20;;;;;;;9.10;1.80;;;9.70;54.50;;;;;;4977951;28;20205;-56
2023/04/13 12:50:46;;;;;;;7.83;2.57;;;9.80;54.50;;;;;;4972653;28;20488;-55
2023/04/13 12:53:11;;;;;;;3.40;1.50;;;9.80;54.70;;;;;;4978631;28;20436;-56
2023/04/13 12:55:38;;;;;;;5.27;1.77;;;9.90;54.90;;;;;;4981893;28;20181;-56
2023/04/13 12:58:03;;;;;;;4.13;1.80;;;9.90;55.10;;;;;;4983769;28;20888;-56
2023/04/13 13:00:29;;;;;;;8.83;1.83;;;9.80;54.00;;;;;;4973539;28;20428;-56